Time;durP1;ratioP1;P1;durP2;ratioP2;P2;SDS_P1;SDS_P2;PMS_P1;PMS_P2;Temp;Humidity;BMP_temperature;BMP_pressure;BME280_temperature;BME280_humidity;BME280_pressure;Samples;Min_cycle;Max_cycle;Signal;HPM_P1;HPM_P2
2022/09/11 00:00:21;;;;;;;5.60;5.20;;;14.90;99.90;;;;;;5216856;28;20970;-49
2022/09/11 00:02:52;;;;;;;17.23;5.40;;;14.90;99.90;;;;;;5214178;28;20505;-48
2022/09/11 00:05:24;;;;;;;12.03;6.70;;;14.90;99.90;;;;;;5220769;28;20221;-47
2022/09/11 00:07:55;;;;;;;6.40;5.87;;;14.90;99.90;;;;;;5218426;28;20265;-49
2022/09/11 00:10:27;;;;;;;7.10;5.43;;;14.90;99.90;;;;;;5219094;28;20511;-49
2022/09/11 00:12:57;;;;;;;12.57;5.90;;;14.80;99.90;;;;;;5223922;28;20453;-49
2022/09/11 00:15:28;;;;;;;10.93;7.87;;;14.80;99.90;;;;;;5223552;28;21138;-49
2022/09/11 00:17:58;;;;;;;9.27;6.10;;;14.70;99.90;;;;;;5252757;28;20533;-48
2022/09/11 00:20:29;;;;;;;8.43;6.13;;;14.80;99.90;;;;;;5233783;28;20285;-48
2022/09/11 00:23:03;;;;;;;11.10;7.33;;;14.80;99.90;;;;;;5220023;28;20214;-49
2022/09/11 00:25:37;;;;;;;9.17;6.50;;;14.80;99.90;;;;;;5224976;28;20445;-47
2022/09/11 00:28:18;;;;;;;10.20;6.50;;;14.70;99.90;;;;;;5219388;28;20472;-48
2022/09/11 00:31:04;;;;;;;8.20;5.90;;;14.70;99.90;;;;;;5214602;28;20437;-48
2022/09/11 00:33:35;;;;;;;7.07;6.47;;;14.70;99.90;;;;;;5223392;28;20457;-49
2022/09/11 00:36:12;;;;;;;10.50;7.30;;;14.70;99.90;;;;;;5221796;28;20437;-49
2022/09/11 00:38:44;;;;;;;8.60;6.43;;;14.70;99.90;;;;;;5222731;28;21037;-50
2022/09/11 00:41:34;;;;;;;6.83;6.17;;;14.60;99.90;;;;;;5222114;28;20434;-47
2022/09/11 00:44:17;;;;;;;8.17;7.23;;;14.60;99.90;;;;;;5220250;28;20450;-49
2022/09/11 00:46:52;;;;;;;6.03;5.50;;;14.70;99.90;;;;;;5221261;28;20971;-48
2022/09/11 00:49:29;;;;;;;6.43;5.93;;;14.70;99.90;;;;;;5237107;28;20461;-47
2022/09/11 00:52:03;;;;;;;10.00;6.73;;;14.80;99.90;;;;;;5218435;28;20968;-48
2022/09/11 00:54:40;;;;;;;7.40;6.50;;;14.70;99.90;;;;;;5220172;28;20863;-48
2022/09/11 00:57:12;;;;;;;7.03;6.10;;;14.70;99.90;;;;;;5241633;28;20480;-49
2022/09/11 00:59:44;;;;;;;6.40;5.43;;;14.80;99.90;;;;;;5237602;28;20835;-50
2022/09/11 01:02:18;;;;;;;6.83;6.20;;;14.80;99.90;;;;;;5245225;28;20971;-48
2022/09/11 01:04:49;;;;;;;6.67;6.00;;;14.80;99.90;;;;;;5217497;28;20904;-48
2022/09/11 01:07:21;;;;;;;10.93;6.93;;;14.90;99.90;;;;;;5215478;28;20839;-48
2022/09/11 01:09:53;;;;;;;6.67;5.97;;;14.80;99.90;;;;;;5225490;28;20473;-50
2022/09/11 01:12:37;;;;;;;7.70;6.10;;;14.80;99.90;;;;;;5217933;28;20436;-48
2022/09/11 01:15:18;;;;;;;6.27;5.70;;;14.80;99.90;;;;;;5220761;28;20511;-49
2022/09/11 01:17:48;;;;;;;6.10;5.70;;;14.80;99.90;;;;;;5220324;28;20448;-51
2022/09/11 01:20:54;;;;;;;8.27;6.40;;;14.70;99.90;;;;;;5219599;28;20446;-49
2022/09/11 01:23:25;;;;;;;10.90;5.73;;;14.70;99.90;;;;;;5205494;28;20222;-48
2022/09/11 01:26:13;;;;;;;11.70;5.50;;;14.70;99.90;;;;;;5221707;28;20464;-49
2022/09/11 01:28:49;;;;;;;8.23;6.80;;;14.70;99.90;;;;;;5221082;28;20233;-48
2022/09/11 01:31:25;;;;;;;6.50;5.67;;;14.70;99.90;;;;;;5238089;28;20771;-48
2022/09/11 01:34:01;;;;;;;7.80;6.17;;;14.60;99.90;;;;;;5218787;28;20457;-48
2022/09/11 01:36:37;;;;;;;7.70;6.80;;;14.70;99.90;;;;;;5220895;28;20437;-49
2022/09/11 01:39:08;;;;;;;6.60;6.03;;;14.60;99.90;;;;;;5220800;28;21040;-49
2022/09/11 01:41:52;;;;;;;7.27;6.47;;;14.60;99.90;;;;;;5236546;28;20449;-48
2022/09/11 01:44:30;;;;;;;6.00;5.43;;;14.60;99.90;;;;;;5215273;28;20210;-48
2022/09/11 01:47:04;;;;;;;7.10;5.67;;;14.60;99.90;;;;;;5219780;28;20449;-49
2022/09/11 01:49:39;;;;;;;5.73;5.33;;;14.50;99.90;;;;;;5223326;28;20474;-48
2022/09/11 01:52:18;;;;;;;7.63;5.63;;;14.50;99.90;;;;;;5214185;28;20473;-48
2022/09/11 01:55:00;;;;;;;5.83;4.63;;;14.50;99.90;;;;;;5219784;28;20445;-49
2022/09/11 01:57:55;;;;;;;5.87;5.37;;;14.40;99.90;;;;;;5215286;28;22061;-49
2022/09/11 02:00:26;;;;;;;8.13;5.83;;;14.40;99.90;;;;;;5221575;28;20441;-48
2022/09/11 02:03:28;;;;;;;6.43;5.93;;;14.30;99.90;;;;;;5214284;28;20476;-48
2022/09/11 02:06:12;;;;;;;14.17;5.97;;;14.20;99.90;;;;;;5202689;28;20222;-48
2022/09/11 02:08:49;;;;;;;6.10;5.60;;;14.20;99.90;;;;;;5220462;28;20469;-50
2022/09/11 02:11:20;;;;;;;7.80;6.50;;;14.20;99.90;;;;;;5219106;28;20445;-50
2022/09/11 02:14:03;;;;;;;6.00;5.40;;;14.10;99.90;;;;;;5235422;28;20449;-47
2022/09/11 02:16:42;;;;;;;10.43;5.00;;;14.00;99.90;;;;;;5223189;28;20940;-49
2022/09/11 02:19:17;;;;;;;5.63;5.10;;;14.00;99.90;;;;;;5218116;28;20473;-47
2022/09/11 02:21:49;;;;;;;10.43;6.10;;;13.90;99.90;;;;;;5215694;28;20554;-48
2022/09/11 02:24:23;;;;;;;6.47;5.87;;;13.80;99.90;;;;;;5221476;28;20458;-49
2022/09/11 02:26:59;;;;;;;7.57;5.50;;;13.80;99.90;;;;;;5222024;28;20445;-48
2022/09/11 02:29:31;;;;;;;6.40;5.90;;;13.80;99.90;;;;;;5215909;28;20856;-47
2022/09/11 02:32:02;;;;;;;6.43;5.93;;;13.80;99.90;;;;;;5215973;28;21028;-47
2022/09/11 02:34:35;;;;;;;5.63;5.20;;;13.80;99.90;;;;;;5223394;28;20449;-48
2022/09/11 02:37:17;;;;;;;5.73;5.23;;;13.70;99.90;;;;;;5220542;28;20438;-49
2022/09/11 02:39:59;;;;;;;5.80;5.37;;;13.70;99.90;;;;;;5219346;28;20445;-48
2022/09/11 02:42:34;;;;;;;6.30;5.80;;;13.70;99.90;;;;;;5233238;28;20445;-49
2022/09/11 02:45:08;;;;;;;9.83;5.53;;;13.70;99.90;;;;;;5221204;28;20427;-47
2022/09/11 02:48:10;;;;;;;12.30;6.13;;;13.70;99.90;;;;;;5220313;28;20433;-48
2022/09/11 02:50:51;;;;;;;6.53;5.57;;;13.70;99.90;;;;;;5207753;28;20563;-52
2022/09/11 02:53:30;;;;;;;6.30;5.73;;;13.80;99.90;;;;;;5222586;28;20528;-47
2022/09/11 02:56:10;;;;;;;9.10;6.27;;;13.80;99.90;;;;;;5219643;28;20432;-48
2022/09/11 02:58:58;;;;;;;7.13;5.57;;;13.80;99.90;;;;;;5219333;28;20445;-48
2022/09/11 03:01:30;;;;;;;6.00;5.40;;;13.80;99.90;;;;;;5187366;28;20825;-47
2022/09/11 03:04:01;;;;;;;12.20;6.90;;;13.90;99.90;;;;;;5220316;28;20977;-49
2022/09/11 03:06:31;;;;;;;7.90;7.20;;;14.00;99.90;;;;;;5219614;28;20450;-47
2022/09/11 03:09:02;;;;;;;8.43;7.27;;;14.00;99.90;;;;;;5222143;28;20290;-47
2022/09/11 03:11:33;;;;;;;12.10;8.90;;;13.90;99.90;;;;;;5219872;28;20182;-48
2022/09/11 03:14:03;;;;;;;12.03;9.20;;;14.00;99.90;;;;;;5223772;28;20203;-48
2022/09/11 03:16:35;;;;;;;8.63;7.03;;;14.00;99.90;;;;;;5217321;28;20188;-48
2022/09/11 03:19:06;;;;;;;16.33;7.77;;;14.00;99.90;;;;;;5225072;28;20188;-48
2022/09/11 03:21:37;;;;;;;12.63;8.70;;;14.00;99.90;;;;;;5236572;28;20456;-48
2022/09/11 03:24:08;;;;;;;11.67;8.37;;;13.90;99.90;;;;;;5209781;28;20207;-48
2022/09/11 03:26:39;;;;;;;12.77;9.60;;;14.00;99.90;;;;;;5217127;28;20445;-48
2022/09/11 03:29:10;;;;;;;12.57;10.30;;;14.00;99.90;;;;;;5217516;28;20217;-47
2022/09/11 03:31:41;;;;;;;12.37;9.63;;;14.00;99.90;;;;;;5217856;28;20445;-48
2022/09/11 03:34:12;;;;;;;12.47;9.87;;;13.90;99.90;;;;;;5222253;28;20202;-48
2022/09/11 03:36:43;;;;;;;15.33;10.80;;;13.90;99.90;;;;;;5219086;28;20221;-50
2022/09/11 03:39:13;;;;;;;17.23;11.70;;;13.90;99.90;;;;;;5223182;28;20476;-48
2022/09/11 03:41:44;;;;;;;11.50;9.40;;;13.80;99.90;;;;;;5218287;28;20191;-48
2022/09/11 03:44:14;;;;;;;13.53;9.77;;;13.80;99.90;;;;;;5216626;28;20235;-49
2022/09/11 03:46:45;;;;;;;19.70;10.70;;;13.80;99.90;;;;;;5222074;28;20194;-48
2022/09/11 03:49:15;;;;;;;18.70;12.07;;;13.80;99.90;;;;;;5221933;28;20210;-48
2022/09/11 03:51:46;;;;;;;16.13;10.50;;;13.70;99.90;;;;;;5222944;28;20278;-47
2022/09/11 03:54:17;;;;;;;18.23;12.13;;;13.60;99.90;;;;;;5234389;28;20234;-47
2022/09/11 03:56:48;;;;;;;17.20;13.10;;;13.60;99.90;;;;;;5222104;28;20184;-47
2022/09/11 03:59:19;;;;;;;17.63;13.27;;;13.50;99.90;;;;;;5221033;28;20191;-51
2022/09/11 04:01:50;;;;;;;18.03;13.20;;;13.50;99.90;;;;;;5216342;28;20195;-47
2022/09/11 04:04:21;;;;;;;15.90;11.90;;;13.40;99.90;;;;;;5246785;22;20507;-47
2022/09/11 04:06:52;;;;;;;17.13;11.93;;;13.40;99.90;;;;;;5222593;28;20441;-49
2022/09/11 04:09:23;;;;;;;18.00;12.90;;;13.40;99.90;;;;;;5226977;28;20282;-47
2022/09/11 04:11:53;;;;;;;16.50;11.70;;;13.30;99.90;;;;;;5241325;28;20262;-47
2022/09/11 04:14:24;;;;;;;20.97;13.03;;;13.30;99.90;;;;;;5228286;28;20452;-49
2022/09/11 04:16:54;;;;;;;18.53;13.00;;;13.30;99.90;;;;;;5232335;28;20194;-47
2022/09/11 04:19:25;;;;;;;24.13;13.53;;;13.40;99.90;;;;;;5249403;28;20186;-48
2022/09/11 04:21:55;;;;;;;18.63;12.30;;;13.40;99.90;;;;;;5226340;28;20222;-48
2022/09/11 04:24:26;;;;;;;18.97;12.70;;;13.40;99.90;;;;;;5233198;28;20209;-47
2022/09/11 04:26:58;;;;;;;21.33;12.63;;;13.40;99.90;;;;;;5230586;28;20189;-47
2022/09/11 04:29:31;;;;;;;19.60;12.67;;;13.50;99.90;;;;;;5240153;28;20197;-49
2022/09/11 04:32:02;;;;;;;21.60;12.60;;;13.60;99.90;;;;;;5236135;28;20473;-50
2022/09/11 04:34:32;;;;;;;25.07;14.07;;;13.70;99.90;;;;;;5261417;28;20863;-47
2022/09/11 04:37:03;;;;;;;25.03;13.60;;;13.70;99.90;;;;;;5229586;28;20214;-48
2022/09/11 04:39:34;;;;;;;20.47;12.97;;;13.70;99.90;;;;;;5251536;28;20206;-47
2022/09/11 04:42:05;;;;;;;25.50;14.03;;;13.70;99.90;;;;;;5230018;28;20187;-47
2022/09/11 04:44:36;;;;;;;27.00;14.03;;;13.80;99.90;;;;;;5246517;28;20464;-47
2022/09/11 04:47:07;;;;;;;25.17;14.50;;;13.70;99.90;;;;;;5231342;28;20202;-48
2022/09/11 04:49:38;;;;;;;26.23;14.00;;;13.80;99.90;;;;;;5243071;28;20202;-47
2022/09/11 04:52:09;;;;;;;24.87;13.93;;;13.80;99.90;;;;;;5246571;28;20444;-47
2022/09/11 04:54:40;;;;;;;24.70;14.00;;;13.90;99.90;;;;;;5224576;28;20452;-49
2022/09/11 04:57:10;;;;;;;27.83;14.40;;;14.00;99.90;;;;;;5247970;28;20185;-48
2022/09/11 04:59:41;;;;;;;28.73;16.50;;;14.00;99.90;;;;;;5230881;28;20178;-50
2022/09/11 05:02:11;;;;;;;24.67;13.00;;;14.00;99.90;;;;;;5211935;28;20187;-47
2022/09/11 05:04:43;;;;;;;28.93;14.30;;;13.90;99.90;;;;;;5245885;28;20304;-48
2022/09/11 05:07:14;;;;;;;24.60;13.80;;;14.00;99.90;;;;;;5240124;28;20444;-47
2022/09/11 05:09:44;;;;;;;23.23;12.93;;;14.10;99.90;;;;;;5230329;28;20297;-52
2022/09/11 05:12:16;;;;;;;25.13;13.97;;;14.20;99.90;;;;;;5236909;28;20204;-47
2022/09/11 05:14:47;;;;;;;26.30;14.43;;;14.30;99.90;;;;;;5246348;28;20677;-48
2022/09/11 05:17:17;;;;;;;20.67;14.33;;;14.30;99.90;;;;;;5230570;28;20451;-49
2022/09/11 05:19:48;;;;;;;22.67;13.60;;;14.30;99.90;;;;;;5224351;28;20178;-46
2022/09/11 05:22:18;;;;;;;25.63;15.07;;;14.40;99.90;;;;;;5221674;28;20282;-48
2022/09/11 05:24:49;;;;;;;32.90;16.50;;;14.60;99.90;;;;;;5228940;28;20215;-47
2022/09/11 05:27:19;;;;;;;26.80;15.40;;;14.60;99.90;;;;;;5245895;28;20219;-47
2022/09/11 05:29:50;;;;;;;23.20;14.50;;;14.60;99.90;;;;;;5228310;28;20206;-46
2022/09/11 05:32:20;;;;;;;21.60;12.73;;;14.70;99.90;;;;;;5228233;28;20178;-47
2022/09/11 05:34:51;;;;;;;33.63;18.20;;;14.70;99.90;;;;;;5241069;28;20218;-47
2022/09/11 05:37:23;;;;;;;32.63;16.57;;;14.80;99.90;;;;;;5242010;28;21935;-48
2022/09/11 05:39:54;;;;;;;41.00;20.23;;;14.80;99.90;;;;;;5224455;28;20207;-46
2022/09/11 05:42:27;;;;;;;31.37;17.13;;;14.70;99.90;;;;;;5231842;28;20865;-46
2022/09/11 05:44:57;;;;;;;31.87;18.67;;;14.70;99.90;;;;;;5219559;28;20198;-47
2022/09/11 05:47:28;;;;;;;32.33;17.10;;;14.80;99.90;;;;;;5247514;28;20517;-47
2022/09/11 05:49:59;;;;;;;28.23;18.87;;;14.80;99.90;;;;;;5240614;28;20210;-47
2022/09/11 05:52:29;;;;;;;33.63;18.70;;;14.80;99.90;;;;;;5241671;28;20653;-47
2022/09/11 05:55:00;;;;;;;29.27;18.43;;;14.80;99.90;;;;;;5247791;28;20205;-48
2022/09/11 05:57:30;;;;;;;37.63;18.50;;;14.70;99.90;;;;;;5226768;28;20201;-49
2022/09/11 06:00:02;;;;;;;33.97;18.90;;;14.70;99.90;;;;;;5243090;28;20269;-49
2022/09/11 06:02:33;;;;;;;36.03;18.80;;;14.80;99.90;;;;;;5242228;28;20186;-48
2022/09/11 06:05:03;;;;;;;32.10;17.87;;;14.80;99.90;;;;;;5244746;28;20476;-49
2022/09/11 06:07:34;;;;;;;34.37;19.10;;;14.90;99.90;;;;;;5224370;28;20186;-51
2022/09/11 06:10:06;;;;;;;35.40;19.77;;;14.90;99.90;;;;;;5227160;28;20216;-48
2022/09/11 06:12:36;;;;;;;28.30;16.93;;;14.90;99.90;;;;;;5221993;28;20178;-50
2022/09/11 06:15:07;;;;;;;34.50;18.97;;;14.90;99.90;;;;;;5237911;28;20468;-47
2022/09/11 06:17:38;;;;;;;30.40;18.97;;;15.00;99.90;;;;;;5228235;28;20190;-49
2022/09/11 06:20:11;;;;;;;28.33;17.00;;;15.20;99.90;;;;;;5241904;28;20443;-47
2022/09/11 06:22:41;;;;;;;39.50;19.90;;;15.30;99.90;;;;;;5217564;28;20278;-48
2022/09/11 06:25:12;;;;;;;27.30;17.70;;;15.50;99.90;;;;;;5236387;28;20545;-47
2022/09/11 06:27:42;;;;;;;24.20;16.50;;;15.50;99.90;;;;;;5228776;28;20235;-47
2022/09/11 06:30:13;;;;;;;36.63;17.50;;;15.50;99.90;;;;;;5239020;28;20243;-48
2022/09/11 06:32:47;;;;;;;33.53;17.63;;;15.50;99.90;;;;;;5223989;28;20201;-47
2022/09/11 06:35:18;;;;;;;30.73;18.37;;;15.50;99.90;;;;;;5224654;28;20498;-49
2022/09/11 06:37:49;;;;;;;31.93;18.50;;;15.60;99.90;;;;;;5245628;28;20955;-48
2022/09/11 06:40:19;;;;;;;26.70;16.10;;;15.60;99.90;;;;;;5243934;28;20187;-48
2022/09/11 06:42:50;;;;;;;29.70;18.37;;;15.60;99.90;;;;;;5240035;28;20542;-47
2022/09/11 06:45:21;;;;;;;28.53;16.90;;;15.50;99.90;;;;;;5239198;28;20229;-47
2022/09/11 06:47:51;;;;;;;30.60;16.70;;;15.50;99.90;;;;;;5241584;28;20444;-49
2022/09/11 06:50:22;;;;;;;31.80;16.87;;;15.50;99.90;;;;;;5241242;28;20228;-50
2022/09/11 06:52:53;;;;;;;28.73;17.80;;;15.60;99.90;;;;;;5246186;28;20249;-47
2022/09/11 06:55:24;;;;;;;31.70;16.50;;;15.60;99.90;;;;;;5224723;28;20189;-46
2022/09/11 06:57:54;;;;;;;27.17;15.40;;;15.70;99.90;;;;;;5244889;28;20705;-48
2022/09/11 07:00:25;;;;;;;31.60;16.27;;;15.80;99.90;;;;;;5225772;28;20228;-48
2022/09/11 07:02:56;;;;;;;27.53;14.87;;;15.80;99.90;;;;;;5223792;28;20219;-48
2022/09/11 07:05:27;;;;;;;26.07;15.43;;;15.80;99.90;;;;;;5222610;28;20635;-47
2022/09/11 07:07:58;;;;;;;27.27;15.60;;;15.80;99.90;;;;;;5230066;28;20178;-48
2022/09/11 07:10:28;;;;;;;24.90;16.07;;;15.80;99.90;;;;;;5220113;28;20627;-48
2022/09/11 07:12:59;;;;;;;23.33;14.90;;;15.70;99.90;;;;;;5229773;28;20700;-49
2022/09/11 07:15:31;;;;;;;23.13;15.37;;;15.70;99.90;;;;;;5224958;28;20253;-47
2022/09/11 07:18:01;;;;;;;22.23;13.63;;;15.80;99.90;;;;;;5227103;28;20205;-47
2022/09/11 07:20:32;;;;;;;26.97;14.73;;;15.80;99.90;;;;;;5246042;28;20570;-47
2022/09/11 07:23:02;;;;;;;25.50;13.90;;;15.90;99.90;;;;;;5226052;28;20614;-52
2022/09/11 07:25:37;;;;;;;20.00;13.80;;;16.00;99.90;;;;;;5239848;28;20261;-47
2022/09/11 07:28:07;;;;;;;19.23;14.40;;;16.00;99.90;;;;;;5225619;28;20213;-50
2022/09/11 07:30:39;;;;;;;21.00;14.60;;;16.10;99.90;;;;;;5241199;28;20804;-52
2022/09/11 07:33:09;;;;;;;23.53;13.47;;;16.30;99.90;;;;;;5219725;28;20208;-52
2022/09/11 07:35:40;;;;;;;22.10;14.50;;;16.60;99.90;;;;;;5241623;28;20424;-48
2022/09/11 07:38:11;;;;;;;20.30;12.67;;;17.00;99.90;;;;;;5244149;28;20266;-47
2022/09/11 07:40:43;;;;;;;16.33;11.50;;;19.00;99.90;;;;;;5239566;28;20668;-49
2022/09/11 07:43:14;;;;;;;14.70;10.70;;;21.80;99.90;;;;;;5224424;28;20535;-51
2022/09/11 07:45:44;;;;;;;12.77;9.80;;;24.30;99.90;;;;;;5225103;28;20494;-50
2022/09/11 07:48:15;;;;;;;18.50;10.57;;;24.80;90.70;;;;;;5237617;28;20859;-48
2022/09/11 07:51:03;;;;;;;11.47;8.87;;;23.50;90.90;;;;;;5243141;28;20208;-47
2022/09/11 07:53:43;;;;;;;20.33;10.17;;;22.00;96.70;;;;;;5228933;28;20239;-48
2022/09/11 07:56:17;;;;;;;12.83;9.73;;;21.00;99.90;;;;;;5239823;28;20436;-49
2022/09/11 07:58:48;;;;;;;23.43;11.77;;;20.60;99.90;;;;;;5225872;28;20437;-52
2022/09/11 08:01:28;;;;;;;23.33;10.50;;;20.10;99.90;;;;;;5242494;28;20435;-47
2022/09/11 08:04:01;;;;;;;14.70;10.50;;;19.60;99.90;;;;;;5224942;28;20973;-48
2022/09/11 08:06:34;;;;;;;14.30;10.07;;;19.20;99.90;;;;;;5224634;28;20449;-48
2022/09/11 08:09:08;;;;;;;17.03;11.90;;;19.00;99.90;;;;;;5244081;28;20560;-48
2022/09/11 08:11:41;;;;;;;16.30;11.40;;;18.80;99.90;;;;;;5237990;28;20493;-48
2022/09/11 08:14:13;;;;;;;13.67;10.27;;;19.10;99.90;;;;;;5241137;28;20826;-47
2022/09/11 08:16:44;;;;;;;19.87;11.00;;;19.50;99.90;;;;;;5237717;28;20445;-47
2022/09/11 08:19:17;;;;;;;19.27;12.23;;;19.40;99.90;;;;;;5228371;28;20995;-50
2022/09/11 08:21:49;;;;;;;18.93;10.90;;;19.10;99.90;;;;;;5234504;28;20201;-49
2022/09/11 08:24:20;;;;;;;20.30;11.90;;;18.80;99.90;;;;;;5240749;28;20464;-49
2022/09/11 08:26:50;;;;;;;21.10;11.93;;;18.70;99.90;;;;;;5240244;28;20546;-48
2022/09/11 08:29:21;;;;;;;16.43;10.00;;;18.50;99.90;;;;;;5235798;28;20461;-47
2022/09/11 08:31:52;;;;;;;13.10;9.90;;;18.50;99.90;;;;;;5241345;28;20186;-47
2022/09/11 08:34:23;;;;;;;15.83;10.80;;;18.50;99.90;;;;;;5243881;28;20468;-49
2022/09/11 08:36:53;;;;;;;19.07;12.60;;;18.20;99.90;;;;;;5241983;28;20194;-46
2022/09/11 08:39:24;;;;;;;13.47;10.73;;;18.00;99.90;;;;;;5223228;28;20195;-47
2022/09/11 08:42:01;;;;;;;18.60;11.17;;;17.90;99.90;;;;;;5242413;28;20247;-47
2022/09/11 08:44:42;;;;;;;16.43;11.10;;;17.90;99.90;;;;;;5226326;28;20316;-48
2022/09/11 08:47:23;;;;;;;19.03;11.60;;;18.00;99.90;;;;;;5236628;28;20490;-48
2022/09/11 08:50:07;;;;;;;13.17;10.43;;;18.00;99.90;;;;;;5241013;28;20459;-46
2022/09/11 08:52:40;;;;;;;13.67;9.50;;;18.30;99.90;;;;;;5215858;28;20448;-49
2022/09/11 08:55:23;;;;;;;15.87;10.67;;;18.50;99.90;;;;;;5230890;28;20428;-46
2022/09/11 08:58:02;;;;;;;16.47;9.93;;;18.60;99.90;;;;;;5227861;28;20463;-49
2022/09/11 09:00:42;;;;;;;17.67;9.60;;;18.70;99.90;;;;;;5221989;28;20432;-46
2022/09/11 09:03:30;;;;;;;17.37;10.00;;;18.60;99.90;;;;;;5243496;28;20460;-48
2022/09/11 09:06:13;;;;;;;14.63;9.40;;;18.60;99.90;;;;;;5232341;28;20432;-51
2022/09/11 09:08:55;;;;;;;10.57;9.30;;;18.70;99.90;;;;;;5236148;28;21007;-48
2022/09/11 09:11:49;;;;;;;14.60;8.97;;;18.90;99.90;;;;;;5236677;28;20800;-48
2022/09/11 09:14:38;;;;;;;10.10;8.20;;;19.10;99.90;;;;;;5241315;28;20453;-49
2022/09/11 09:17:40;;;;;;;10.00;8.70;;;19.30;99.90;;;;;;5236753;28;20444;-49
2022/09/11 09:20:21;;;;;;;10.00;8.93;;;19.20;99.90;;;;;;5244755;28;20857;-48
2022/09/11 09:23:18;;;;;;;14.10;9.40;;;19.20;99.90;;;;;;5240367;28;20459;-50
2022/09/11 09:25:52;;;;;;;11.93;8.33;;;19.80;99.90;;;;;;5216543;28;20441;-54
2022/09/11 09:28:45;;;;;;;12.10;7.93;;;20.50;99.90;;;;;;5236066;28;20467;-48
2022/09/11 09:31:21;;;;;;;13.17;8.10;;;20.20;99.90;;;;;;5238610;28;20444;-47
2022/09/11 09:33:56;;;;;;;12.00;7.60;;;20.00;99.90;;;;;;5241447;28;20497;-48
2022/09/11 09:36:35;;;;;;;13.67;7.90;;;19.60;99.90;;;;;;5214021;28;20587;-49
2022/09/11 09:39:16;;;;;;;11.03;7.67;;;19.40;99.90;;;;;;5238454;28;20562;-50
2022/09/11 09:42:05;;;;;;;18.67;8.90;;;19.10;99.90;;;;;;5217230;28;20440;-49
2022/09/11 09:44:50;;;;;;;12.90;9.30;;;18.90;99.90;;;;;;5216068;28;20455;-49
2022/09/11 09:47:21;;;;;;;14.57;9.30;;;18.70;99.90;;;;;;5230702;28;20441;-48
2022/09/11 09:49:51;;;;;;;14.40;8.87;;;18.70;99.90;;;;;;5239788;28;20570;-50
2022/09/11 09:52:25;;;;;;;10.27;7.90;;;19.00;99.90;;;;;;5242160;28;20574;-49
2022/09/11 09:55:00;;;;;;;8.53;7.13;;;19.40;99.90;;;;;;5241766;28;20277;-47
2022/09/11 09:57:33;;;;;;;12.50;7.37;;;19.80;99.90;;;;;;5224819;28;20458;-49
2022/09/11 10:00:11;;;;;;;8.90;8.00;;;20.20;99.90;;;;;;5229691;28;20433;-49
2022/09/11 10:02:49;;;;;;;13.67;6.67;;;20.70;99.90;;;;;;5213483;28;20434;-48
2022/09/11 10:05:24;;;;;;;11.77;7.93;;;20.80;99.90;;;;;;5229232;28;20470;-51
2022/09/11 10:08:18;;;;;;;11.27;7.77;;;20.70;99.90;;;;;;5221127;28;20450;-50
2022/09/11 10:11:12;;;;;;;12.60;7.33;;;20.50;99.90;;;;;;5225590;28;20432;-51
2022/09/11 10:13:53;;;;;;;8.00;6.90;;;20.10;99.90;;;;;;5237388;28;20457;-51
2022/09/11 10:16:26;;;;;;;10.20;7.53;;;20.00;99.90;;;;;;5222766;28;20437;-51
2022/09/11 10:18:57;;;;;;;10.63;6.83;;;20.10;99.90;;;;;;5242688;28;20796;-52
2022/09/11 10:21:32;;;;;;;9.40;8.00;;;20.10;99.90;;;;;;5237577;28;20441;-52
2022/09/11 10:24:08;;;;;;;12.77;8.87;;;20.40;99.90;;;;;;5213075;28;20207;-53
2022/09/11 10:26:44;;;;;;;10.80;8.00;;;20.80;99.90;;;;;;5241092;28;20801;-53
2022/09/11 10:29:28;;;;;;;15.50;8.90;;;21.30;99.90;;;;;;5215953;28;20547;-52
2022/09/11 10:32:01;;;;;;;37.67;21.17;;;21.40;99.90;;;;;;5225002;28;20448;-52
2022/09/11 10:34:36;;;;;;;11.77;7.70;;;21.30;99.90;;;;;;5240234;28;20460;-51
2022/09/11 10:37:28;;;;;;;8.40;6.37;;;21.20;99.90;;;;;;5221964;28;20993;-55
2022/09/11 10:40:06;;;;;;;8.57;5.57;;;21.10;99.90;;;;;;5243176;28;20489;-54
2022/09/11 10:42:40;;;;;;;9.40;7.20;;;21.00;99.90;;;;;;5233944;28;20436;-51
2022/09/11 10:45:16;;;;;;;8.40;6.53;;;21.00;99.90;;;;;;5227147;28;20498;-51
2022/09/11 10:47:47;;;;;;;9.10;7.00;;;21.10;99.90;;;;;;5207826;28;20592;-54
2022/09/11 10:50:22;;;;;;;8.27;7.40;;;21.00;99.90;;;;;;5224775;28;20490;-55
2022/09/11 10:53:08;;;;;;;10.97;6.83;;;20.90;99.90;;;;;;5241487;28;20474;-55
2022/09/11 10:55:49;;;;;;;12.17;7.60;;;20.60;99.90;;;;;;5225885;28;20447;-55
2022/09/11 10:58:24;;;;;;;12.63;6.63;;;20.40;99.90;;;;;;5243635;28;20428;-53
2022/09/11 11:00:55;;;;;;;16.70;10.33;;;20.10;99.90;;;;;;5220938;28;20855;-52
2022/09/11 11:03:27;;;;;;;11.43;9.00;;;19.90;99.90;;;;;;5240193;28;20510;-53
2022/09/11 11:06:33;;;;;;;10.10;7.27;;;19.50;99.90;;;;;;5220252;28;20968;-52
2022/09/11 11:09:12;;;;;;;9.77;7.47;;;19.30;99.90;;;;;;5181049;28;20559;-55
2022/09/11 11:12:13;;;;;;;12.33;8.40;;;19.20;99.90;;;;;;5233903;28;20525;-52
2022/09/11 11:15:18;;;;;;;11.93;9.67;;;19.30;99.90;;;;;;5236218;28;20454;-53
2022/09/11 11:18:00;;;;;;;7.23;6.43;;;19.50;99.90;;;;;;5219306;28;20448;-53
2022/09/11 11:20:45;;;;;;;6.90;6.30;;;19.60;99.90;;;;;;5239838;28;20456;-50
2022/09/11 11:23:25;;;;;;;13.87;7.67;;;19.60;99.90;;;;;;5218119;28;20486;-52
2022/09/11 11:26:10;;;;;;;10.67;7.27;;;19.50;99.90;;;;;;5239831;28;20504;-53
2022/09/11 11:28:47;;;;;;;8.73;5.57;;;19.60;99.90;;;;;;5241486;28;20505;-52
2022/09/11 11:31:40;;;;;;;18.30;10.50;;;19.80;99.90;;;;;;5239240;28;20478;-54
2022/09/11 11:34:35;;;;;;;23.03;14.90;;;20.00;99.90;;;;;;5242017;28;20459;-52
2022/09/11 11:37:18;;;;;;;11.33;7.30;;;20.30;99.90;;;;;;5237370;28;20441;-50
2022/09/11 11:40:09;;;;;;;11.87;7.03;;;20.50;99.90;;;;;;5223739;28;20432;-52
2022/09/11 11:43:02;;;;;;;12.47;8.27;;;20.90;99.90;;;;;;5210789;28;20438;-51
2022/09/11 11:46:07;;;;;;;10.60;7.00;;;21.20;99.90;;;;;;5237787;28;20937;-52
2022/09/11 11:48:51;;;;;;;40.90;19.07;;;21.20;99.90;;;;;;5156323;28;20468;-51
2022/09/11 11:51:27;;;;;;;19.57;11.87;;;21.00;99.90;;;;;;5238932;28;20460;-50
2022/09/11 11:54:16;;;;;;;16.13;9.70;;;21.10;99.90;;;;;;5238682;28;20452;-52
2022/09/11 11:56:53;;;;;;;5.90;4.97;;;21.20;99.90;;;;;;5236578;28;20455;-50
2022/09/11 11:59:45;;;;;;;7.10;5.53;;;21.10;99.90;;;;;;5241606;28;20432;-54
2022/09/11 12:02:20;;;;;;;5.40;4.90;;;21.10;99.90;;;;;;5214177;28;21073;-53
2022/09/11 12:05:19;;;;;;;6.03;4.53;;;21.30;99.90;;;;;;5223070;28;20993;-51
2022/09/11 12:07:50;;;;;;;5.87;4.67;;;21.70;99.90;;;;;;5242144;28;20807;-53
2022/09/11 12:10:38;;;;;;;9.70;5.53;;;22.00;99.90;;;;;;5241696;28;20559;-51
2022/09/11 12:13:15;;;;;;;8.00;5.20;;;22.40;99.90;;;;;;5245407;28;20510;-52
2022/09/11 12:16:23;;;;;;;9.13;7.27;;;22.10;99.60;;;;;;5228245;28;20440;-51
2022/09/11 12:19:12;;;;;;;32.07;15.50;;;22.10;99.30;;;;;;5242856;28;20434;-53
2022/09/11 12:21:51;;;;;;;10.53;6.60;;;21.70;99.20;;;;;;5228789;28;20440;-51
2022/09/11 12:24:43;;;;;;;32.80;17.27;;;21.50;99.90;;;;;;5237530;28;20452;-51
2022/09/11 12:27:33;;;;;;;36.23;22.20;;;21.20;99.90;;;;;;5219768;28;20516;-52
2022/09/11 12:30:15;;;;;;;22.60;9.73;;;20.90;99.90;;;;;;5243170;28;20972;-53
2022/09/11 12:32:48;;;;;;;11.30;6.50;;;20.70;99.90;;;;;;5238645;28;20433;-53
2022/09/11 12:35:44;;;;;;;9.17;7.70;;;20.40;99.90;;;;;;5229700;28;20442;-51
2022/09/11 12:38:39;;;;;;;10.23;7.63;;;20.20;99.90;;;;;;5226380;28;20413;-52
2022/09/11 12:41:26;;;;;;;8.10;6.33;;;20.00;99.90;;;;;;5242515;28;20438;-53
2022/09/11 12:43:57;;;;;;;7.17;5.47;;;20.10;99.90;;;;;;5227221;28;20487;-53
2022/09/11 12:46:27;;;;;;;9.53;7.90;;;20.20;99.90;;;;;;5240049;28;21474;-48
2022/09/11 12:49:09;;;;;;;10.17;5.73;;;20.50;99.90;;;;;;5243893;28;21002;-52
2022/09/11 12:51:48;;;;;;;6.77;5.40;;;20.70;99.90;;;;;;5245065;28;20186;-49
2022/09/11 12:54:37;;;;;;;6.57;4.00;;;20.70;99.90;;;;;;5226852;28;20460;-49
2022/09/11 12:57:14;;;;;;;6.03;5.43;;;20.80;99.90;;;;;;5229907;28;20432;-49
2022/09/11 12:59:52;;;;;;;24.60;14.50;;;20.80;99.90;;;;;;5237781;28;20929;-47
2022/09/11 13:02:36;;;;;;;8.63;5.90;;;20.70;99.90;;;;;;5222643;28;20586;-50
2022/09/11 13:05:40;;;;;;;8.70;7.60;;;20.60;99.90;;;;;;5223683;28;20587;-48
2022/09/11 13:08:22;;;;;;;6.27;4.67;;;20.40;99.90;;;;;;5246290;28;20432;-50
2022/09/11 13:11:31;;;;;;;5.30;4.90;;;20.50;99.90;;;;;;5243868;28;20519;-49
2022/09/11 13:14:05;;;;;;;15.60;10.30;;;20.40;99.90;;;;;;5240074;28;20479;-50
2022/09/11 13:16:36;;;;;;;9.53;6.60;;;20.20;99.90;;;;;;5219306;28;20523;-51
2022/09/11 13:19:06;;;;;;;4.03;3.70;;;20.30;99.90;;;;;;5226095;28;21004;-50
2022/09/11 13:21:39;;;;;;;53.67;25.30;;;20.60;99.90;;;;;;5246651;28;20229;-49